Time;durP1;ratioP1;P1;durP2;ratioP2;P2;SDS_P1;SDS_P2;PMS_P1;PMS_P2;Temp;Humidity;BMP_temperature;BMP_pressure;BME280_temperature;BME280_humidity;BME280_pressure;Samples;Min_cycle;Max_cycle;Signal;HPM_P1;HPM_P2
2022/11/29 00:01:17;;;;;;;149.88;30.88;;;8.30;99.90;;;;;;5058234;28;20052;-70
2022/11/29 00:03:43;;;;;;;141.85;29.92;;;8.30;99.90;;;;;;5074768;28;20059;-70
2022/11/29 00:06:21;;;;;;;143.18;30.10;;;8.30;99.90;;;;;;5068674;28;20087;-70
2022/11/29 00:08:47;;;;;;;151.18;30.50;;;8.30;99.90;;;;;;5066759;28;20048;-70
2022/11/29 00:14:15;;;;;;;131.45;30.23;;;8.30;99.90;;;;;;5072785;28;20048;-70
2022/11/29 00:16:41;;;;;;;136.57;30.10;;;8.30;99.90;;;;;;5058653;28;20044;-71
2022/11/29 00:19:08;;;;;;;143.18;30.77;;;8.20;99.90;;;;;;5058705;28;20087;-70
2022/11/29 00:21:34;;;;;;;163.20;31.23;;;8.30;99.90;;;;;;5071633;28;20088;-70
2022/11/29 00:24:02;;;;;;;141.13;28.00;;;8.30;99.90;;;;;;5054308;28;20082;-70
2022/11/29 00:26:28;;;;;;;152.23;29.38;;;8.30;99.90;;;;;;5071293;28;20135;-70
2022/11/29 00:28:54;;;;;;;143.70;30.27;;;8.30;99.90;;;;;;5071597;28;20127;-70
2022/11/29 00:31:26;;;;;;;131.05;29.38;;;8.30;99.90;;;;;;5077114;28;20062;-71
2022/11/29 00:33:52;;;;;;;132.85;28.30;;;8.30;99.90;;;;;;5070395;28;20091;-70
2022/11/29 00:36:19;;;;;;;129.27;28.63;;;8.30;99.90;;;;;;5090805;28;20090;-70
2022/11/29 00:38:45;;;;;;;141.35;29.60;;;8.20;99.90;;;;;;5088467;28;20052;-70
2022/11/29 00:41:11;;;;;;;153.63;30.95;;;8.30;99.90;;;;;;5082299;28;20048;-70
2022/11/29 00:43:37;;;;;;;153.45;31.17;;;8.30;99.90;;;;;;5086321;28;20449;-71
2022/11/29 00:46:03;;;;;;;137.18;27.75;;;8.20;99.90;;;;;;5098508;28;20070;-70
2022/11/29 00:48:29;;;;;;;133.68;29.02;;;8.30;99.90;;;;;;5097632;28;20036;-71
2022/11/29 00:50:55;;;;;;;159.40;30.55;;;8.30;99.90;;;;;;5097494;28;20074;-70
2022/11/29 00:53:21;;;;;;;139.98;29.80;;;8.30;99.90;;;;;;5098753;28;20075;-70
2022/11/29 00:55:48;;;;;;;151.50;30.25;;;8.30;99.90;;;;;;5080390;28;20098;-70
2022/11/29 00:58:13;;;;;;;178.68;30.98;;;8.30;99.90;;;;;;5068210;28;20098;-70
2022/11/29 01:00:39;;;;;;;178.07;32.00;;;8.30;99.90;;;;;;5093195;28;20039;-70
2022/11/29 01:03:05;;;;;;;174.15;31.63;;;8.30;99.90;;;;;;5073873;28;20036;-70
2022/11/29 01:05:31;;;;;;;143.95;29.80;;;8.30;99.90;;;;;;5097443;28;20550;-70
2022/11/29 01:07:57;;;;;;;148.32;29.35;;;9.00;99.90;;;;;;5091987;28;20043;-70
2022/11/29 01:10:23;;;;;;;141.40;30.20;;;8.30;99.90;;;;;;5077495;28;20043;-70
2022/11/29 01:12:48;;;;;;;135.52;30.10;;;8.30;99.90;;;;;;5077381;28;20101;-70
2022/11/29 01:15:14;;;;;;;138.45;29.58;;;8.20;99.90;;;;;;5070988;28;20152;-70
2022/11/29 01:17:40;;;;;;;124.80;29.70;;;8.30;99.90;;;;;;5081426;28;20407;-71
2022/11/29 01:20:08;;;;;;;125.10;28.52;;;8.20;99.90;;;;;;5090991;28;20052;-70
2022/11/29 01:22:35;;;;;;;125.25;29.02;;;8.20;99.90;;;;;;5064199;28;20062;-70
2022/11/29 01:25:01;;;;;;;145.90;28.70;;;8.30;99.90;;;;;;5086875;28;20074;-70
2022/11/29 01:27:27;;;;;;;133.55;30.13;;;8.30;99.90;;;;;;5080656;28;20096;-70
2022/11/29 01:29:53;;;;;;;157.35;30.27;;;8.30;99.90;;;;;;5080430;28;20054;-71
2022/11/29 01:32:19;;;;;;;155.18;29.50;;;8.30;99.90;;;;;;5097444;28;20361;-70
2022/11/29 01:34:44;;;;;;;134.68;28.88;;;8.30;99.90;;;;;;5095607;28;20145;-70
2022/11/29 01:37:11;;;;;;;130.40;29.15;;;8.30;99.90;;;;;;5065712;28;20043;-70
2022/11/29 01:39:37;;;;;;;163.15;29.55;;;8.30;99.90;;;;;;5087432;28;20094;-70
2022/11/29 01:42:03;;;;;;;182.55;29.90;;;8.30;99.90;;;;;;5091239;28;20047;-70
2022/11/29 01:44:28;;;;;;;130.15;28.20;;;8.30;99.90;;;;;;5077076;28;20052;-70
2022/11/29 01:46:55;;;;;;;154.20;30.40;;;8.30;99.90;;;;;;5090881;28;20047;-70
2022/11/29 01:49:28;;;;;;;136.65;28.92;;;8.30;99.90;;;;;;5082653;28;20120;-70
2022/11/29 01:52:06;;;;;;;141.82;28.58;;;8.30;99.90;;;;;;5096478;28;20047;-70
2022/11/29 01:54:35;;;;;;;163.27;28.05;;;8.30;99.90;;;;;;5083682;28;20043;-70
2022/11/29 01:57:05;;;;;;;137.68;28.45;;;8.20;99.90;;;;;;5076494;28;20054;-70
2022/11/29 01:59:31;;;;;;;137.70;28.25;;;8.20;99.90;;;;;;5076207;28;20043;-70
2022/11/29 02:02:05;;;;;;;126.80;26.38;;;8.20;99.90;;;;;;5063871;28;20040;-70
2022/11/29 02:04:35;;;;;;;125.10;26.27;;;8.30;99.90;;;;;;5095680;28;20083;-70
2022/11/29 02:07:01;;;;;;;156.90;29.15;;;8.30;99.90;;;;;;5075569;28;20101;-70
2022/11/29 02:09:27;;;;;;;131.07;26.83;;;8.30;99.90;;;;;;5077745;28;20043;-70
2022/11/29 02:12:04;;;;;;;127.18;26.20;;;8.30;99.90;;;;;;5096700;28;20111;-70
2022/11/29 02:15:01;;;;;;;158.13;28.20;;;8.20;99.90;;;;;;5079124;28;20054;-70
2022/11/29 02:17:52;;;;;;;155.38;27.80;;;8.30;99.90;;;;;;5096682;28;20043;-70
2022/11/29 02:20:59;;;;;;;151.02;28.23;;;8.30;99.90;;;;;;5077714;28;20048;-70
2022/11/29 02:23:58;;;;;;;140.05;27.65;;;8.30;99.90;;;;;;5083024;28;20054;-70
2022/11/29 02:26:48;;;;;;;138.55;27.45;;;8.30;99.90;;;;;;5072732;28;20047;-70
2022/11/29 02:29:29;;;;;;;161.27;29.05;;;8.30;99.90;;;;;;5075962;28;20056;-70
2022/11/29 02:32:14;;;;;;;190.05;30.55;;;8.30;99.90;;;;;;5076144;28;20048;-70
2022/11/29 02:34:45;;;;;;;149.70;28.25;;;8.30;99.90;;;;;;5093945;28;20104;-70
2022/11/29 02:37:29;;;;;;;149.07;28.50;;;8.30;99.90;;;;;;5093889;28;20052;-70
2022/11/29 02:40:21;;;;;;;173.98;30.13;;;8.30;99.90;;;;;;5094978;28;20040;-70
2022/11/29 02:43:02;;;;;;;126.90;27.20;;;8.30;99.90;;;;;;5070483;28;20055;-70
2022/11/29 02:45:43;;;;;;;165.23;29.20;;;8.30;99.90;;;;;;5096170;28;20055;-70
2022/11/29 02:48:23;;;;;;;165.27;27.63;;;8.30;99.90;;;;;;5079323;28;20067;-70
2022/11/29 02:50:58;;;;;;;167.60;29.45;;;8.30;99.90;;;;;;5088543;28;20398;-70
2022/11/29 02:53:41;;;;;;;140.05;28.13;;;8.20;99.90;;;;;;5075157;28;20040;-70
2022/11/29 02:56:27;;;;;;;128.68;27.92;;;8.30;99.90;;;;;;5082139;28;20043;-70
2022/11/29 02:59:05;;;;;;;221.43;31.02;;;8.30;99.90;;;;;;5085105;28;20052;-70
2022/11/29 03:01:50;;;;;;;143.30;27.73;;;8.30;99.90;;;;;;5079294;28;20044;-70
2022/11/29 03:04:27;;;;;;;137.45;26.88;;;8.30;99.90;;;;;;5093772;28;20079;-70
2022/11/29 03:07:20;;;;;;;132.57;27.30;;;8.30;99.90;;;;;;5085052;28;20048;-70
2022/11/29 03:10:02;;;;;;;135.65;28.05;;;8.30;99.90;;;;;;5090163;28;20052;-70
2022/11/29 03:13:03;;;;;;;152.65;29.33;;;8.30;99.90;;;;;;5089777;28;20051;-70
2022/11/29 03:15:44;;;;;;;132.25;27.75;;;8.30;99.90;;;;;;5050234;28;20066;-71
2022/11/29 03:18:13;;;;;;;148.52;28.85;;;8.30;99.90;;;;;;5096585;28;20047;-70
2022/11/29 03:20:54;;;;;;;140.55;28.65;;;8.30;99.90;;;;;;5084011;28;20060;-70
2022/11/29 03:23:55;;;;;;;148.45;28.58;;;8.30;99.90;;;;;;5078828;28;20075;-70
2022/11/29 03:26:54;;;;;;;166.20;30.73;;;8.30;99.90;;;;;;5075167;28;20127;-70
2022/11/29 03:29:55;;;;;;;145.45;29.98;;;8.30;99.90;;;;;;5079663;28;20095;-70
2022/11/29 03:32:49;;;;;;;165.02;29.75;;;8.30;99.90;;;;;;5066568;28;20052;-70
2022/11/29 03:35:33;;;;;;;208.77;32.15;;;8.30;99.90;;;;;;5075978;28;20059;-70
2022/11/29 03:38:26;;;;;;;188.05;31.73;;;8.20;99.90;;;;;;5095726;28;20063;-70
2022/11/29 03:41:16;;;;;;;157.77;29.85;;;8.30;99.90;;;;;;5075107;28;20080;-70
2022/11/29 03:44:05;;;;;;;158.07;30.60;;;8.30;99.90;;;;;;5069803;28;20047;-70
2022/11/29 03:47:06;;;;;;;180.00;30.17;;;8.30;99.90;;;;;;5074999;28;20127;-70
2022/11/29 03:49:42;;;;;;;125.57;28.77;;;8.30;99.90;;;;;;5049847;28;20059;-70
2022/11/29 03:52:22;;;;;;;138.65;28.83;;;8.30;99.90;;;;;;5092004;28;20047;-70
2022/11/29 03:55:15;;;;;;;130.50;28.25;;;8.20;99.90;;;;;;5095601;28;20040;-70
2022/11/29 03:58:12;;;;;;;128.38;29.27;;;8.30;99.90;;;;;;5078631;28;20122;-70
2022/11/29 04:01:03;;;;;;;140.50;28.48;;;8.20;99.90;;;;;;5090957;28;20079;-70
2022/11/29 04:04:14;;;;;;;124.97;27.90;;;8.20;99.90;;;;;;5075126;28;20044;-70
2022/11/29 04:07:13;;;;;;;121.00;28.35;;;8.20;99.90;;;;;;5074325;28;20040;-70
2022/11/29 04:09:54;;;;;;;158.48;30.35;;;8.20;99.90;;;;;;5065579;28;20055;-70
2022/11/29 04:12:50;;;;;;;210.50;31.73;;;8.20;99.90;;;;;;5093738;28;20043;-70
2022/11/29 04:15:43;;;;;;;125.35;28.35;;;8.20;99.90;;;;;;5095216;28;20044;-70
2022/11/29 04:18:43;;;;;;;154.95;28.17;;;8.20;99.90;;;;;;5094880;28;20039;-70
2022/11/29 04:21:48;;;;;;;149.20;28.92;;;8.10;99.90;;;;;;5090732;28;20375;-70
2022/11/29 04:24:29;;;;;;;126.22;25.77;;;8.10;99.90;;;;;;5089730;28;20062;-71
2022/11/29 04:27:31;;;;;;;150.73;26.90;;;8.10;99.90;;;;;;5069044;28;20040;-70
2022/11/29 04:30:06;;;;;;;101.90;24.85;;;8.00;99.90;;;;;;5077475;28;20043;-70
2022/11/29 04:32:54;;;;;;;114.97;25.73;;;8.00;99.90;;;;;;5075017;28;20048;-70
2022/11/29 04:35:49;;;;;;;107.63;25.00;;;8.00;99.90;;;;;;5073103;28;20491;-70
2022/11/29 04:38:33;;;;;;;77.90;23.13;;;7.90;99.90;;;;;;5068467;28;20108;-70
2022/11/29 04:41:13;;;;;;;96.95;24.98;;;7.90;99.90;;;;;;5095061;28;20055;-70
2022/11/29 04:43:51;;;;;;;90.88;25.17;;;7.90;99.90;;;;;;5094424;28;20051;-70
2022/11/29 04:47:02;;;;;;;118.25;26.20;;;7.80;99.90;;;;;;5094919;28;20395;-70
2022/11/29 04:50:19;;;;;;;134.63;24.83;;;7.90;99.90;;;;;;5084563;28;20456;-70
2022/11/29 04:53:13;;;;;;;78.13;24.58;;;7.80;99.90;;;;;;5057762;28;20079;-70
2022/11/29 04:56:18;;;;;;;98.10;26.00;;;7.80;99.90;;;;;;5080158;28;20437;-70
2022/11/29 04:59:25;;;;;;;111.78;25.58;;;7.80;99.90;;;;;;5082158;28;20063;-70
2022/11/29 05:02:29;;;;;;;207.10;27.10;;;7.80;99.90;;;;;;5013934;28;20472;-70
2022/11/29 05:04:58;;;;;;;123.68;25.25;;;7.80;99.90;;;;;;5078316;28;20503;-70
2022/11/29 05:07:46;;;;;;;128.63;26.23;;;7.80;99.90;;;;;;5077498;28;20139;-70
2022/11/29 05:10:53;;;;;;;120.78;26.25;;;8.40;99.90;;;;;;5086341;28;20052;-70
2022/11/29 05:13:37;;;;;;;333.50;31.92;;;7.70;99.90;;;;;;5090062;28;20059;-70
2022/11/29 05:16:32;;;;;;;102.93;23.13;;;7.70;99.90;;;;;;5093790;28;20048;-70
2022/11/29 05:19:45;;;;;;;105.00;26.25;;;7.70;99.90;;;;;;5077870;28;20047;-70
2022/11/29 05:22:33;;;;;;;118.85;25.90;;;7.70;99.90;;;;;;5022124;28;20053;-71
2022/11/29 05:25:13;;;;;;;78.97;26.05;;;7.70;99.90;;;;;;5003947;28;20413;-70
2022/11/29 05:27:48;;;;;;;84.03;25.38;;;7.70;99.90;;;;;;5064844;28;20487;-70
2022/11/29 05:30:16;;;;;;;74.93;24.25;;;7.70;99.90;;;;;;5085882;28;20045;-70
2022/11/29 05:33:12;;;;;;;106.43;26.70;;;7.60;99.90;;;;;;5083315;28;20052;-70
2022/11/29 05:36:17;;;;;;;107.63;25.17;;;7.60;99.90;;;;;;5093154;28;20181;-70
2022/11/29 05:39:18;;;;;;;87.68;25.40;;;7.60;99.90;;;;;;5057002;28;20472;-69
2022/11/29 05:41:59;;;;;;;107.45;26.08;;;7.60;99.90;;;;;;5096439;28;20071;-70
2022/11/29 05:44:43;;;;;;;126.32;26.45;;;7.60;99.90;;;;;;5112689;28;20050;-70
2022/11/29 05:47:11;;;;;;;202.00;28.25;;;7.60;99.90;;;;;;5078481;28;20044;-70
2022/11/29 05:50:17;;;;;;;187.90;27.40;;;7.60;99.90;;;;;;5091156;28;20051;-70
2022/11/29 05:53:08;;;;;;;112.78;25.88;;;7.60;99.90;;;;;;5082946;28;20058;-70
2022/11/29 05:56:03;;;;;;;100.85;26.95;;;7.60;99.90;;;;;;5066780;28;20048;-70
2022/11/29 05:58:43;;;;;;;378.75;31.40;;;7.60;99.90;;;;;;5080444;28;20052;-70
2022/11/29 06:01:31;;;;;;;154.05;28.30;;;7.60;99.90;;;;;;5084988;28;20035;-70
2022/11/29 06:04:18;;;;;;;95.68;26.35;;;7.60;99.90;;;;;;5077952;28;20062;-70
2022/11/29 06:06:51;;;;;;;261.92;30.88;;;7.60;99.90;;;;;;5083124;28;20105;-70
2022/11/29 06:09:30;;;;;;;157.23;26.42;;;7.60;99.90;;;;;;5078516;28;20050;-70
2022/11/29 06:12:11;;;;;;;90.45;25.38;;;7.60;99.90;;;;;;5085769;28;20040;-70
2022/11/29 06:14:44;;;;;;;173.32;27.70;;;7.60;99.90;;;;;;5087479;28;20426;-71
2022/11/29 06:17:35;;;;;;;118.80;26.20;;;7.60;99.90;;;;;;5085690;28;20047;-71
2022/11/29 06:20:18;;;;;;;106.63;26.75;;;7.60;99.90;;;;;;5090993;28;20070;-70
2022/11/29 06:23:12;;;;;;;159.68;28.30;;;7.50;99.90;;;;;;5074408;28;20044;-71
2022/11/29 06:25:50;;;;;;;135.15;27.10;;;7.50;99.90;;;;;;5102919;28;20079;-71
2022/11/29 06:28:43;;;;;;;156.57;28.13;;;7.60;99.90;;;;;;5076055;28;20373;-71
2022/11/29 06:31:25;;;;;;;146.65;27.52;;;7.50;99.90;;;;;;5091740;28;20074;-70
2022/11/29 06:34:04;;;;;;;128.90;27.27;;;7.60;99.90;;;;;;5088094;28;20035;-70
2022/11/29 06:36:36;;;;;;;124.57;27.00;;;7.60;99.90;;;;;;5074434;28;20068;-70
2022/11/29 06:39:02;;;;;;;118.25;26.95;;;7.60;99.90;;;;;;5066234;28;20048;-70
2022/11/29 06:41:28;;;;;;;123.10;26.63;;;7.60;99.90;;;;;;5064814;28;20052;-71
2022/11/29 06:43:54;;;;;;;137.07;27.60;;;7.50;99.90;;;;;;5053936;28;20542;-70
2022/11/29 06:46:33;;;;;;;136.80;29.25;;;7.50;99.90;;;;;;5031013;28;20166;-71
2022/11/29 06:49:10;;;;;;;115.30;27.33;;;7.50;99.90;;;;;;5065780;28;20127;-70
2022/11/29 06:52:01;;;;;;;97.05;27.98;;;7.50;99.90;;;;;;5059940;28;20044;-71
2022/11/29 06:54:48;;;;;;;102.20;26.58;;;7.50;99.90;;;;;;5067450;28;20063;-70
2022/11/29 06:57:38;;;;;;;132.13;27.98;;;7.50;99.90;;;;;;5053989;28;20083;-70
2022/11/29 07:00:10;;;;;;;111.05;26.50;;;7.50;99.90;;;;;;5061892;28;20097;-70
2022/11/29 07:03:01;;;;;;;89.18;24.55;;;7.50;99.90;;;;;;5065546;28;20040;-70
2022/11/29 07:05:33;;;;;;;108.47;26.15;;;7.50;99.90;;;;;;5064306;28;20052;-71
2022/11/29 07:08:05;;;;;;;102.40;25.85;;;7.50;99.90;;;;;;5053800;28;20392;-70
2022/11/29 07:10:32;;;;;;;;;;;7.50;99.90;;;;;;5046976;28;20113;-70
2022/11/29 07:12:58;;;;;;;102.55;24.90;;;7.50;99.90;;;;;;5069979;28;19928;-71
2022/11/29 07:15:24;;;;;;;170.32;26.88;;;7.50;99.90;;;;;;5063763;28;20115;-70
2022/11/29 07:17:55;;;;;;;104.57;26.25;;;7.50;99.90;;;;;;5065623;28;20040;-71
2022/11/29 07:20:27;;;;;;;106.38;26.05;;;7.50;99.90;;;;;;5069732;28;20065;-71
2022/11/29 07:22:57;;;;;;;81.83;26.07;;;7.50;99.90;;;;;;5082469;28;20044;-70
2022/11/29 07:25:43;;;;;;;139.80;27.58;;;7.50;99.90;;;;;;5071344;28;20627;-71
2022/11/29 07:28:33;;;;;;;108.45;26.92;;;7.50;99.90;;;;;;5073941;28;20048;-70
2022/11/29 07:31:09;;;;;;;90.25;26.70;;;7.50;99.90;;;;;;5058330;28;20079;-70
2022/11/29 07:34:08;;;;;;;94.07;25.80;;;7.50;99.90;;;;;;5068175;28;20488;-70
2022/11/29 07:36:59;;;;;;;112.65;28.23;;;7.50;99.90;;;;;;5068727;28;20105;-70
2022/11/29 07:39:44;;;;;;;101.65;28.23;;;7.50;99.90;;;;;;5066208;28;20048;-70
2022/11/29 07:42:41;;;;;;;102.70;28.38;;;7.50;99.90;;;;;;5079871;28;20040;-70
2022/11/29 07:45:13;;;;;;;85.18;27.88;;;7.50;99.90;;;;;;5085145;28;20127;-71
2022/11/29 07:47:38;;;;;;;93.75;26.75;;;7.50;99.90;;;;;;5083340;28;20079;-70
2022/11/29 07:50:04;;;;;;;90.28;26.55;;;7.50;99.90;;;;;;5074530;28;20080;-71
2022/11/29 07:52:30;;;;;;;120.63;27.73;;;7.50;99.90;;;;;;5085174;28;20048;-70
2022/11/29 07:54:56;;;;;;;92.47;27.02;;;7.60;99.90;;;;;;5060328;28;20039;-70
2022/11/29 07:57:22;;;;;;;88.38;28.15;;;7.50;99.90;;;;;;5102295;28;20035;-70
2022/11/29 07:59:47;;;;;;;75.85;26.63;;;7.50;99.90;;;;;;5084537;28;20048;-70
2022/11/29 08:02:13;;;;;;;76.40;27.38;;;7.50;99.90;;;;;;5077521;28;20158;-70
2022/11/29 08:04:45;;;;;;;83.03;26.98;;;7.60;99.90;;;;;;5070481;28;20055;-71
2022/11/29 08:07:10;;;;;;;81.20;27.60;;;7.60;99.90;;;;;;5087701;28;20047;-71
2022/11/29 08:09:36;;;;;;;81.88;26.95;;;7.60;99.90;;;;;;5074845;28;20051;-70
2022/11/29 08:12:02;;;;;;;82.20;27.40;;;7.60;99.90;;;;;;5087127;28;20044;-70
2022/11/29 08:14:31;;;;;;;83.88;24.83;;;7.60;99.90;;;;;;5074170;28;20051;-70
2022/11/29 08:16:57;;;;;;;82.88;25.35;;;7.60;99.90;;;;;;5077906;28;20089;-70
2022/11/29 08:19:23;;;;;;;92.90;26.85;;;7.60;99.90;;;;;;5077423;28;20046;-71
2022/11/29 08:21:50;;;;;;;86.45;26.75;;;7.60;99.90;;;;;;5093043;28;20048;-70
2022/11/29 08:24:16;;;;;;;81.03;24.55;;;8.40;99.90;;;;;;5079287;28;20048;-71
2022/11/29 08:26:41;;;;;;;72.38;26.50;;;7.60;99.90;;;;;;5074213;28;20053;-70
2022/11/29 08:29:07;;;;;;;72.60;25.00;;;7.60;99.90;;;;;;5104815;28;20664;-70
2022/11/29 08:31:33;;;;;;;68.35;24.85;;;7.60;99.90;;;;;;5064800;28;20051;-71
2022/11/29 08:33:59;;;;;;;88.70;25.60;;;7.60;99.90;;;;;;5061365;28;20040;-71
2022/11/29 08:36:25;;;;;;;68.95;24.15;;;7.60;99.90;;;;;;5069773;28;20636;-70
2022/11/29 08:38:51;;;;;;;65.13;24.77;;;7.60;99.90;;;;;;5077298;28;20130;-70
2022/11/29 08:41:17;;;;;;;67.30;24.17;;;7.60;99.90;;;;;;5070894;28;20127;-70
2022/11/29 08:43:43;;;;;;;88.47;25.60;;;7.60;99.90;;;;;;5087210;28;20035;-70
2022/11/29 08:46:09;;;;;;;74.45;24.15;;;7.60;99.90;;;;;;5070478;28;20044;-70
2022/11/29 08:48:35;;;;;;;65.13;24.50;;;7.70;99.90;;;;;;5088646;28;20059;-70
2022/11/29 08:51:02;;;;;;;63.08;23.85;;;8.00;99.90;;;;;;5087966;28;20069;-70
2022/11/29 08:53:40;;;;;;;80.47;25.02;;;7.70;99.90;;;;;;5069579;28;20063;-70
2022/11/29 08:56:13;;;;;;;69.30;24.65;;;7.70;99.90;;;;;;5109554;28;20047;-70
2022/11/29 08:58:39;;;;;;;55.65;22.30;;;7.70;99.90;;;;;;5088257;28;20147;-70
2022/11/29 09:01:12;;;;;;;78.60;23.05;;;8.20;99.90;;;;;;5077850;28;20040;-70
2022/11/29 09:06:22;;;;;;;72.82;24.52;;;7.60;99.90;;;;;;5082697;28;20079;-70
2022/11/29 09:08:48;;;;;;;113.50;24.52;;;7.70;99.90;;;;;;5067605;28;20072;-70
2022/11/29 09:11:20;;;;;;;60.70;23.63;;;7.70;99.90;;;;;;5099289;28;20047;-70
2022/11/29 09:13:52;;;;;;;62.92;23.50;;;7.70;99.90;;;;;;5086323;28;20039;-70
2022/11/29 09:16:21;;;;;;;61.88;22.77;;;7.70;99.90;;;;;;5095139;28;20127;-70
2022/11/29 09:18:51;;;;;;;67.45;23.70;;;7.70;99.90;;;;;;5094421;28;20051;-70
2022/11/29 09:21:17;;;;;;;59.38;23.92;;;7.80;99.90;;;;;;5078603;28;20074;-70
2022/11/29 09:23:44;;;;;;;83.35;24.63;;;7.80;99.90;;;;;;5075310;28;20082;-70
2022/11/29 09:26:15;;;;;;;57.30;23.92;;;7.80;99.90;;;;;;5074164;28;20074;-70
2022/11/29 09:28:41;;;;;;;59.25;23.05;;;7.80;99.90;;;;;;5081442;28;20047;-70
2022/11/29 09:31:10;;;;;;;55.42;21.88;;;7.80;99.90;;;;;;5082798;28;20132;-70
2022/11/29 09:33:36;;;;;;;54.60;22.70;;;7.80;99.90;;;;;;5058200;28;20052;-70
2022/11/29 09:36:02;;;;;;;80.53;24.50;;;7.90;99.90;;;;;;5073744;28;20059;-70
2022/11/29 09:38:28;;;;;;;59.95;23.25;;;7.90;99.90;;;;;;5091341;28;20414;-70
2022/11/29 09:41:13;;;;;;;55.70;22.88;;;8.00;99.90;;;;;;5094487;28;20052;-70
2022/11/29 09:44:01;;;;;;;70.68;23.75;;;7.90;99.90;;;;;;5095271;28;20047;-70
2022/11/29 09:46:57;;;;;;;54.85;22.88;;;7.90;99.90;;;;;;5084238;28;20055;-70
2022/11/29 09:49:41;;;;;;;66.75;23.40;;;8.00;99.90;;;;;;5077014;28;20044;-70
2022/11/29 09:52:35;;;;;;;58.33;23.30;;;8.00;99.90;;;;;;5079129;28;20040;-70
2022/11/29 09:55:29;;;;;;;59.28;23.20;;;8.00;99.90;;;;;;5083694;28;20127;-70
2022/11/29 09:57:57;;;;;;;53.78;22.88;;;8.00;99.90;;;;;;5087944;28;20044;-70
2022/11/29 10:00:22;;;;;;;49.70;22.15;;;8.10;99.90;;;;;;5077277;28;20047;-70
2022/11/29 10:03:02;;;;;;;47.60;22.65;;;8.10;99.90;;;;;;5089769;28;20047;-70
2022/11/29 10:05:37;;;;;;;53.72;22.58;;;8.10;99.90;;;;;;5090481;28;20388;-69
2022/11/29 10:08:14;;;;;;;53.28;22.42;;;8.20;99.90;;;;;;5076545;28;20040;-69
2022/11/29 10:10:46;;;;;;;49.08;21.33;;;8.20;99.90;;;;;;5090856;28;20131;-70
2022/11/29 10:13:24;;;;;;;48.70;21.30;;;8.20;99.90;;;;;;5076420;28;20226;-70
2022/11/29 10:15:53;;;;;;;52.35;21.42;;;8.20;99.90;;;;;;5104504;27;20047;-70
2022/11/29 10:18:30;;;;;;;45.33;20.95;;;8.20;99.90;;;;;;5076338;28;20046;-70
2022/11/29 10:20:59;;;;;;;48.28;20.05;;;8.20;99.90;;;;;;5070662;28;20060;-70
2022/11/29 10:23:31;;;;;;;46.55;20.83;;;8.30;99.90;;;;;;5102550;28;20047;-70
2022/11/29 10:25:58;;;;;;;43.90;20.52;;;8.30;99.90;;;;;;5094745;28;20051;-70
2022/11/29 10:28:32;;;;;;;44.17;20.50;;;8.30;99.90;;;;;;5080106;28;20500;-70
2022/11/29 10:31:13;;;;;;;44.17;19.80;;;8.30;99.90;;;;;;5093319;28;20483;-70
2022/11/29 10:33:40;;;;;;;43.08;20.60;;;8.40;99.90;;;;;;5095145;28;20054;-70
2022/11/29 10:36:32;;;;;;;39.83;19.40;;;8.40;99.90;;;;;;5083759;28;20079;-70
2022/11/29 10:39:03;;;;;;;48.05;20.38;;;8.40;99.90;;;;;;5079743;28;20488;-70
2022/11/29 10:41:28;;;;;;;48.75;20.95;;;8.40;99.90;;;;;;5089553;28;20475;-70
2022/11/29 10:43:57;;;;;;;51.47;21.05;;;8.50;99.90;;;;;;5070403;28;20047;-70
2022/11/29 10:46:30;;;;;;;43.88;19.52;;;8.50;99.90;;;;;;5086862;28;20055;-70
2022/11/29 10:48:59;;;;;;;41.92;19.58;;;8.50;99.90;;;;;;5085395;28;20105;-71
2022/11/29 10:51:26;;;;;;;43.25;20.02;;;8.50;99.90;;;;;;5082728;28;20044;-71
2022/11/29 10:53:53;;;;;;;40.03;19.00;;;8.50;99.90;;;;;;5082536;28;20083;-71
2022/11/29 10:56:24;;;;;;;45.15;19.63;;;8.60;99.90;;;;;;5071726;28;20040;-70
2022/11/29 10:59:03;;;;;;;43.72;19.58;;;8.60;99.90;;;;;;5081118;28;20437;-70
2022/11/29 11:01:42;;;;;;;37.88;18.58;;;8.60;99.90;;;;;;5079940;28;20373;-71
2022/11/29 11:04:16;;;;;;;37.78;18.67;;;8.60;99.90;;;;;;5080976;28;20070;-69
2022/11/29 11:06:48;;;;;;;45.10;19.50;;;8.60;99.90;;;;;;5076376;28;20046;-70
2022/11/29 11:09:23;;;;;;;44.80;18.48;;;8.60;99.90;;;;;;5086957;28;20079;-70
2022/11/29 11:12:02;;;;;;;39.20;18.02;;;8.70;99.90;;;;;;5084075;28;20034;-71
2022/11/29 11:14:31;;;;;;;34.33;17.13;;;8.70;99.90;;;;;;5071438;28;20052;-71
2022/11/29 11:17:15;;;;;;;39.15;17.58;;;8.70;99.90;;;;;;5093694;28;20039;-69
2022/11/29 11:19:41;;;;;;;30.70;16.02;;;8.70;99.90;;;;;;5078378;28;20475;-70
2022/11/29 11:22:18;;;;;;;37.40;17.52;;;8.70;99.90;;;;;;5083329;28;20044;-70
2022/11/29 11:24:44;;;;;;;31.80;16.40;;;8.80;99.90;;;;;;5075267;28;20039;-70
2022/11/29 11:27:09;;;;;;;37.00;17.02;;;8.70;99.90;;;;;;5068554;28;20499;-70
2022/11/29 11:29:37;;;;;;;38.47;17.30;;;8.70;99.90;;;;;;5090887;28;20441;-70
2022/11/29 11:32:06;;;;;;;36.53;17.17;;;8.70;99.90;;;;;;5079180;28;20522;-70
2022/11/29 11:34:37;;;;;;;32.90;16.58;;;8.70;99.90;;;;;;5100549;28;20039;-70
2022/11/29 11:37:15;;;;;;;36.80;16.95;;;8.60;99.90;;;;;;5072092;28;20055;-70
2022/11/29 11:39:42;;;;;;;32.10;16.30;;;8.70;99.90;;;;;;5114811;27;20490;-70
2022/11/29 11:42:38;;;;;;;37.63;16.80;;;8.60;99.90;;;;;;5102089;28;20035;-71
2022/11/29 11:45:10;;;;;;;28.73;15.20;;;8.60;99.90;;;;;;5096300;28;20043;-70
2022/11/29 11:48:06;;;;;;;36.88;16.52;;;8.60;99.90;;;;;;5093333;28;20046;-70
2022/11/29 11:50:43;;;;;;;34.78;16.00;;;8.60;99.90;;;;;;5083587;28;20067;-70
2022/11/29 11:53:34;;;;;;;31.50;15.10;;;8.60;99.90;;;;;;5091615;28;20045;-70
2022/11/29 11:56:06;;;;;;;31.45;15.32;;;8.60;99.90;;;;;;5102437;28;20071;-70
2022/11/29 11:58:47;;;;;;;34.28;15.27;;;8.70;99.90;;;;;;5083290;28;20039;-70
2022/11/29 12:01:29;;;;;;;31.42;15.25;;;8.70;99.90;;;;;;5079726;28;20047;-70
2022/11/29 12:03:55;;;;;;;;;;;8.70;99.90;;;;;;5092859;27;20059;-70
2022/11/29 12:06:26;;;;;;;27.27;14.63;;;8.70;99.90;;;;;;5102531;27;20418;-70
2022/11/29 12:08:58;;;;;;;36.00;15.20;;;8.70;99.90;;;;;;5113371;27;20044;-70
2022/11/29 12:11:26;;;;;;;29.25;15.40;;;8.70;99.90;;;;;;5103822;27;20134;-70
2022/11/29 12:13:55;;;;;;;31.70;14.82;;;8.70;99.90;;;;;;5103436;27;20497;-70
2022/11/29 12:16:31;;;;;;;30.15;14.80;;;8.70;99.90;;;;;;5106396;27;20087;-70
2022/11/29 12:19:06;;;;;;;32.10;15.50;;;8.70;99.90;;;;;;5087979;27;20047;-70
2022/11/29 12:21:37;;;;;;;33.75;14.55;;;8.70;99.90;;;;;;5105204;27;20064;-70
2022/11/29 12:24:08;;;;;;;37.38;16.08;;;8.70;99.90;;;;;;5094499;27;20055;-70
2022/11/29 12:26:39;;;;;;;33.92;14.70;;;8.60;99.90;;;;;;5099815;27;20043;-70
2022/11/29 12:29:14;;;;;;;35.88;16.00;;;8.70;99.90;;;;;;5089529;27;20036;-70
2022/11/29 12:31:53;;;;;;;36.13;15.38;;;8.70;99.90;;;;;;5094969;27;20032;-70
2022/11/29 12:34:57;;;;;;;32.10;14.98;;;8.70;99.90;;;;;;5117635;27;20048;-70
2022/11/29 12:37:46;;;;;;;33.85;15.15;;;8.70;99.90;;;;;;5076008;28;20067;-70
2022/11/29 12:40:32;;;;;;;32.72;15.73;;;8.70;99.90;;;;;;5024582;28;20056;-70
2022/11/29 12:43:19;;;;;;;37.33;15.00;;;8.70;99.90;;;;;;5059404;28;20328;-70
2022/11/29 12:46:07;;;;;;;30.45;14.63;;;8.70;99.90;;;;;;5080981;28;20506;-70
2022/11/29 12:48:51;;;;;;;31.98;15.32;;;8.80;99.90;;;;;;5085562;28;20125;-70
2022/11/29 12:51:45;;;;;;;29.85;15.00;;;8.80;99.90;;;;;;5078731;28;20484;-71
2022/11/29 12:54:38;;;;;;;31.75;15.02;;;8.80;99.90;;;;;;5083816;28;20111;-70
2022/11/29 12:57:17;;;;;;;35.47;15.70;;;8.80;99.90;;;;;;5092866;28;20036;-70
2022/11/29 12:59:59;;;;;;;33.00;16.35;;;8.80;99.90;;;;;;5073753;28;20369;-70
2022/11/29 13:02:46;;;;;;;38.90;15.18;;;8.80;99.90;;;;;;5075574;28;20088;-70
2022/11/29 13:05:17;;;;;;;40.30;15.52;;;8.80;99.90;;;;;;5073866;28;20129;-69
2022/11/29 13:07:49;;;;;;;40.85;16.77;;;8.80;99.90;;;;;;5075627;28;20043;-70
2022/11/29 13:10:31;;;;;;;43.27;16.43;;;8.80;99.90;;;;;;5073038;28;20135;-69
2022/11/29 13:13:13;;;;;;;40.25;16.48;;;8.80;99.90;;;;;;5065360;28;20065;-70
2022/11/29 13:16:06;;;;;;;41.38;16.88;;;8.80;99.90;;;;;;5073129;28;20094;-70
2022/11/29 13:19:01;;;;;;;40.58;17.92;;;8.90;99.90;;;;;;5073601;28;20059;-70
2022/11/29 13:21:43;;;;;;;44.30;18.15;;;8.90;99.90;;;;;;5065598;28;20052;-70
2022/11/29 13:24:11;;;;;;;;;;;8.90;99.90;;;;;;5073678;28;20141;-70
2022/11/29 13:26:39;;;;;;;41.72;17.30;;;8.90;99.90;;;;;;5057718;28;19920;-70
2022/11/29 13:29:09;;;;;;;42.13;17.73;;;8.90;99.90;;;;;;5075263;28;20050;-70
2022/11/29 13:31:37;;;;;;;51.80;17.98;;;8.90;99.90;;;;;;5053876;28;20178;-70